createdAt,value
2023-03-22T00:02:37.294Z,1.30
2023-03-22T00:05:41.687Z,1.57
2023-03-22T00:08:46.490Z,1.40
2023-03-22T00:11:52.043Z,2.00
2023-03-22T00:14:56.421Z,1.90
2023-03-22T00:18:00.046Z,2.30
2023-03-22T00:21:02.853Z,1.97
2023-03-22T00:24:06.163Z,2.30
2023-03-22T00:27:10.270Z,2.30
2023-03-22T00:30:14.007Z,2.03
2023-03-22T00:33:17.005Z,2.40
2023-03-22T00:36:19.751Z,2.67
2023-03-22T00:39:22.816Z,2.17
2023-03-22T00:42:26.877Z,2.60
2023-03-22T00:45:29.732Z,2.33
2023-03-22T00:48:32.447Z,1.97
2023-03-22T00:51:35.337Z,2.20
2023-03-22T00:54:38.118Z,2.50
2023-03-22T00:57:42.194Z,2.00
2023-03-22T01:00:45.666Z,2.40
2023-03-22T01:03:50.929Z,2.43
2023-03-22T01:06:59.151Z,2.20
2023-03-22T01:10:02.057Z,2.60
2023-03-22T01:13:06.513Z,1.70
2023-03-22T01:16:10.543Z,1.67
2023-03-22T01:19:13.702Z,1.70
2023-03-22T01:22:16.457Z,1.83
2023-03-22T01:25:19.553Z,1.53
2023-03-22T01:28:26.423Z,1.37
2023-03-22T01:31:29.955Z,1.40
2023-03-22T01:34:32.818Z,1.50
2023-03-22T01:37:35.693Z,1.53
2023-03-22T01:40:39.077Z,1.20
2023-03-22T01:43:43.642Z,1.30
2023-03-22T01:46:47.958Z,1.43
2023-03-22T01:49:50.927Z,1.43
2023-03-22T01:52:56.727Z,1.30
2023-03-22T01:56:00.368Z,0.93
2023-03-22T01:59:06.065Z,1.20
2023-03-22T02:02:10.861Z,1.60
2023-03-22T02:05:13.968Z,1.40
2023-03-22T02:08:16.944Z,1.10
2023-03-22T02:11:26.807Z,1.20
2023-03-22T02:14:46.299Z,1.20
2023-03-22T02:17:59.821Z,1.00
2023-03-22T02:21:53.370Z,1.80
2023-03-22T02:25:25.354Z,1.40
2023-03-22T02:28:40.596Z,1.47
2023-03-22T02:31:59.470Z,1.27
2023-03-22T02:35:21.618Z,1.30
2023-03-22T02:39:05.490Z,1.10
2023-03-22T02:42:23.075Z,1.37
2023-03-22T02:45:33.776Z,1.60
2023-03-22T02:48:41.852Z,1.70
2023-03-22T02:51:50.000Z,1.10
2023-03-22T02:54:58.992Z,1.50
2023-03-22T02:58:07.867Z,1.30
2023-03-22T03:01:17.879Z,1.30
2023-03-22T03:04:26.097Z,1.40
2023-03-22T03:07:30.553Z,1.63
2023-03-22T03:10:35.658Z,1.30
2023-03-22T03:13:38.596Z,1.70
2023-03-22T03:16:41.480Z,1.50
2023-03-22T03:19:56.602Z,1.40
2023-03-22T03:23:13.672Z,1.20
2023-03-22T03:26:24.949Z,1.27
2023-03-22T03:29:34.229Z,1.50
2023-03-22T03:32:42.146Z,1.40
2023-03-22T03:35:51.826Z,1.20
2023-03-22T03:38:57.255Z,1.70
2023-03-22T03:42:03.348Z,1.33
2023-03-22T03:45:08.281Z,1.23
2023-03-22T03:48:20.823Z,1.37
2023-03-22T03:51:23.970Z,1.43
2023-03-22T03:54:27.049Z,1.73
2023-03-22T03:57:31.326Z,2.07
2023-03-22T04:00:34.198Z,1.77
2023-03-22T04:03:37.574Z,1.67
2023-03-22T04:06:40.355Z,1.87
2023-03-22T04:09:43.499Z,2.27
2023-03-22T04:12:47.683Z,1.80
2023-03-22T04:15:54.133Z,1.50
2023-03-22T04:18:56.853Z,1.30
2023-03-22T04:22:00.390Z,1.70
2023-03-22T04:25:03.668Z,1.70
2023-03-22T04:28:09.580Z,1.53
2023-03-22T04:31:12.470Z,1.60
2023-03-22T04:34:15.264Z,1.47
2023-03-22T04:37:19.185Z,1.77
2023-03-22T04:40:21.992Z,1.40
2023-03-22T04:43:26.118Z,1.60
2023-03-22T04:46:28.926Z,1.40
2023-03-22T04:49:32.518Z,1.60
2023-03-22T04:52:35.353Z,2.07
2023-03-22T04:55:38.285Z,1.90
2023-03-22T04:58:44.139Z,2.17
2023-03-22T05:01:47.358Z,1.60
2023-03-22T05:04:50.404Z,1.80
2023-03-22T05:07:53.129Z,1.77
2023-03-22T05:10:57.393Z,1.60
2023-03-22T05:14:01.665Z,1.73
2023-03-22T05:17:04.638Z,1.63
2023-03-22T05:20:10.144Z,2.10
2023-03-22T05:23:13.565Z,2.00
2023-03-22T05:26:16.653Z,2.10
2023-03-22T05:29:21.312Z,1.87
2023-03-22T05:32:25.579Z,1.80
2023-03-22T05:35:28.436Z,1.87
2023-03-22T05:38:32.108Z,1.30
2023-03-22T05:41:36.664Z,1.47
2023-03-22T05:44:41.387Z,1.70
2023-03-22T05:47:44.439Z,1.60
2023-03-22T05:50:47.366Z,1.77
2023-03-22T05:53:51.777Z,1.57
2023-03-22T05:56:55.847Z,1.50
2023-03-22T06:00:00.178Z,1.30
2023-03-22T06:03:03.753Z,1.30
2023-03-22T06:06:10.752Z,1.60
2023-03-22T06:09:17.535Z,1.80
2023-03-22T06:12:24.574Z,1.40
2023-03-22T06:15:28.792Z,1.60
2023-03-22T06:18:32.986Z,1.80
2023-03-22T06:21:35.984Z,2.07
2023-03-22T06:24:40.634Z,1.80
2023-03-22T06:27:43.650Z,2.10
2023-03-22T06:30:47.942Z,1.60
2023-03-22T06:33:50.821Z,1.30
2023-03-22T06:36:54.263Z,1.80
2023-03-22T06:39:57.346Z,1.50
2023-03-22T06:43:03.596Z,1.70
2023-03-22T06:46:09.485Z,1.47
2023-03-22T06:49:12.542Z,2.00
2023-03-22T06:52:15.515Z,2.00
2023-03-22T06:55:18.494Z,1.87
2023-03-22T06:58:21.445Z,1.30
2023-03-22T07:01:25.803Z,1.33
2023-03-22T07:04:29.163Z,1.33
2023-03-22T07:07:31.961Z,1.60
2023-03-22T07:10:34.819Z,1.33
2023-03-22T07:13:37.738Z,1.20
2023-03-22T07:16:41.823Z,1.20
2023-03-22T07:19:45.076Z,1.27
2023-03-22T07:22:47.887Z,1.15
2023-03-22T07:25:51.619Z,1.17
2023-03-22T07:28:54.537Z,1.25
2023-03-22T07:31:58.709Z,1.00
2023-03-22T07:35:01.412Z,1.10
2023-03-22T07:38:04.786Z,0.90
2023-03-22T07:41:08.154Z,0.90
2023-03-22T07:44:17.670Z,0.95
2023-03-22T07:47:39.457Z,0.90
2023-03-22T07:50:43.757Z,0.90
2023-03-22T07:53:46.694Z,0.82
2023-03-22T07:56:49.520Z,0.88
2023-03-22T07:59:52.184Z,1.20
2023-03-22T08:02:56.341Z,0.80
2023-03-22T08:06:03.885Z,0.80
2023-03-22T08:09:08.447Z,0.60
2023-03-22T08:12:11.266Z,0.82
2023-03-22T08:15:14.035Z,0.70
2023-03-22T08:18:18.158Z,0.88
2023-03-22T08:21:20.850Z,0.73
2023-03-22T08:24:23.577Z,0.60
2023-03-22T08:27:26.354Z,1.20
2023-03-22T08:30:29.287Z,0.63
2023-03-22T08:33:34.524Z,0.65
2023-03-22T08:36:38.381Z,0.60
2023-03-22T08:39:42.140Z,0.50
2023-03-22T08:42:44.890Z,0.70
2023-03-22T08:45:47.729Z,0.57
2023-03-22T08:48:51.913Z,0.60
2023-03-22T08:51:54.762Z,0.80
2023-03-22T08:54:57.543Z,1.00
2023-03-22T08:58:00.609Z,0.50
2023-03-22T09:01:03.597Z,0.57
2023-03-22T09:04:10.564Z,0.50
2023-03-22T09:07:13.438Z,0.52
2023-03-22T09:10:16.847Z,0.50
2023-03-22T09:13:20.371Z,0.55
2023-03-22T09:16:23.221Z,0.60
2023-03-22T09:19:27.583Z,0.60
2023-03-22T09:22:30.316Z,0.30
2023-03-22T09:25:33.071Z,0.73
2023-03-22T09:28:37.015Z,0.80
2023-03-22T09:31:39.960Z,0.80
2023-03-22T09:34:44.157Z,0.77
2023-03-22T09:37:49.366Z,0.50
2023-03-22T09:41:00.712Z,0.60
2023-03-22T09:44:06.441Z,0.85
2023-03-22T09:47:16.468Z,0.60
2023-03-22T09:50:23.709Z,0.50
2023-03-22T09:53:29.157Z,0.60
2023-03-22T09:56:33.068Z,0.60
2023-03-22T09:59:43.812Z,0.60
2023-03-22T10:02:59.241Z,0.60
2023-03-22T10:06:06.112Z,0.52
2023-03-22T10:09:15.799Z,0.80
2023-03-22T10:12:27.092Z,0.47
2023-03-22T10:15:34.181Z,0.57
2023-03-22T10:18:39.580Z,0.57
2023-03-22T10:21:45.971Z,0.80
2023-03-22T10:24:52.036Z,1.13
2023-03-22T10:27:57.851Z,0.45
2023-03-22T10:31:00.667Z,0.70
2023-03-22T10:34:06.610Z,0.70
2023-03-22T10:37:14.587Z,0.63
2023-03-22T10:40:20.686Z,0.60
2023-03-22T10:43:29.300Z,0.73
2023-03-22T10:46:36.298Z,0.70
2023-03-22T10:49:43.407Z,0.57
2023-03-22T10:52:53.466Z,0.50
2023-03-22T10:55:56.722Z,0.55
2023-03-22T10:58:59.409Z,0.50
2023-03-22T11:02:02.675Z,0.85
2023-03-22T11:05:07.727Z,0.68
2023-03-22T11:08:15.593Z,0.57
2023-03-22T11:11:23.340Z,0.60
2023-03-22T11:14:30.586Z,0.38
2023-03-22T11:17:35.947Z,0.80
2023-03-22T11:20:42.260Z,0.57
2023-03-22T11:23:56.696Z,0.60
2023-03-22T11:27:05.240Z,0.52
2023-03-22T11:30:21.054Z,0.60
2023-03-22T11:33:25.957Z,0.47
2023-03-22T11:36:31.058Z,0.70
2023-03-22T11:39:35.060Z,0.65
2023-03-22T11:42:37.672Z,0.38
2023-03-22T11:45:44.741Z,0.73
2023-03-22T11:48:49.559Z,0.82
2023-03-22T11:51:53.980Z,0.88
2023-03-22T11:55:01.202Z,0.80
2023-03-22T11:58:04.846Z,0.57
2023-03-22T12:01:10.954Z,0.60
2023-03-22T12:04:18.770Z,0.60
2023-03-22T12:07:24.623Z,0.50
2023-03-22T12:10:32.255Z,0.57
2023-03-22T12:13:45.966Z,0.70
2023-03-22T12:16:51.251Z,0.80
2023-03-22T12:20:01.586Z,0.57
2023-03-22T12:23:13.950Z,0.50
2023-03-22T12:26:21.512Z,0.43
2023-03-22T12:29:26.036Z,0.73
2023-03-22T12:32:33.523Z,0.60
2023-03-22T12:35:40.035Z,0.50
2023-03-22T12:38:48.294Z,0.60
2023-03-22T12:41:56.589Z,0.47
2023-03-22T12:45:05.958Z,0.40
2023-03-22T12:48:17.058Z,0.50
2023-03-22T12:51:19.817Z,0.38
2023-03-22T12:54:26.121Z,0.40
2023-03-22T12:57:30.426Z,0.30
2023-03-22T13:00:39.402Z,0.20
2023-03-22T13:03:47.831Z,0.20
2023-03-22T13:06:58.309Z,0.40
2023-03-22T13:10:02.408Z,0.50
2023-03-22T13:13:18.789Z,0.52
2023-03-22T13:16:24.568Z,0.30
2023-03-22T13:19:37.860Z,0.55
2023-03-22T13:23:04.095Z,0.50
2023-03-22T13:26:07.005Z,0.50
2023-03-22T13:29:17.326Z,0.52
2023-03-22T13:32:30.913Z,0.38
2023-03-22T13:35:44.336Z,0.43
2023-03-22T13:38:55.667Z,0.40
2023-03-22T13:42:09.470Z,0.40
2023-03-22T13:45:31.452Z,0.43
2023-03-22T13:48:44.736Z,0.35
2023-03-22T13:51:48.159Z,0.57
2023-03-22T13:54:52.319Z,0.40
2023-03-22T13:57:59.852Z,0.40
2023-03-22T14:01:06.037Z,0.40
2023-03-22T14:04:12.750Z,0.40
2023-03-22T14:07:23.518Z,0.32
2023-03-22T14:10:32.095Z,0.35
2023-03-22T14:13:39.278Z,0.40
2023-03-22T14:16:47.647Z,0.45
2023-03-22T14:19:52.637Z,0.30
